Time;durP1;ratioP1;P1;durP2;ratioP2;P2;SDS_P1;SDS_P2;PMS_P1;PMS_P2;Temp;Humidity;BMP_temperature;BMP_pressure;BME280_temperature;BME280_humidity;BME280_pressure;Samples;Min_cycle;Max_cycle;Signal;HPM_P1;HPM_P2
2021/09/08 00:00:21;;;;;;;13.32;7.53;;;;;;;15.15;67.12;101035.38;5117159;28;20139;-83
2021/09/08 00:02:49;;;;;;;10.43;6.22;;;;;;;15.13;67.30;101040.00;5116904;28;20046;-83
2021/09/08 00:05:19;;;;;;;11.55;7.07;;;;;;;15.05;67.39;101035.16;5116788;28;20434;-83
2021/09/08 00:07:47;;;;;;;12.95;8.02;;;;;;;15.07;67.78;101038.63;5116861;28;20100;-83
2021/09/08 00:10:15;;;;;;;15.18;7.82;;;;;;;15.04;68.21;101037.94;5116574;28;20496;-79
2021/09/08 00:12:49;;;;;;;14.57;7.18;;;;;;;15.00;68.35;101041.81;5116685;28;20039;-81
2021/09/08 00:15:18;;;;;;;13.23;6.55;;;;;;;15.07;67.88;101037.75;5116626;28;20047;-81
2021/09/08 00:17:49;;;;;;;12.18;7.28;;;;;;;14.98;68.38;101035.69;5116869;28;20032;-81
2021/09/08 00:20:17;;;;;;;13.60;7.05;;;;;;;14.95;68.70;101035.84;5116458;28;20097;-80
2021/09/08 00:22:47;;;;;;;12.63;7.60;;;;;;;14.94;68.73;101032.31;5116371;28;20039;-81
2021/09/08 00:25:15;;;;;;;12.55;7.00;;;;;;;14.76;69.56;101033.50;5116197;28;20478;-81
2021/09/08 00:27:43;;;;;;;12.90;7.57;;;;;;;14.75;69.86;101031.78;5116621;28;20055;-81
2021/09/08 00:30:15;;;;;;;14.07;7.55;;;;;;;14.81;69.80;101026.03;5116068;28;20039;-81
2021/09/08 00:32:44;;;;;;;11.60;7.63;;;;;;;14.69;70.08;101029.53;5116323;28;20051;-81
2021/09/08 00:35:12;;;;;;;12.55;7.82;;;;;;;14.76;69.94;101037.06;5115979;28;20067;-79
2021/09/08 00:37:41;;;;;;;11.80;7.25;;;;;;;14.75;70.20;101034.47;5116583;28;20043;-77
2021/09/08 00:40:12;;;;;;;12.23;7.47;;;;;;;14.74;70.37;101036.31;5115939;28;20456;-76
2021/09/08 00:42:41;;;;;;;14.10;7.38;;;;;;;14.56;71.24;101034.81;5116489;28;20077;-76
2021/09/08 00:45:10;;;;;;;13.18;8.05;;;;;;;14.54;71.49;101034.06;5115932;28;20054;-76
2021/09/08 00:47:40;;;;;;;15.68;8.40;;;;;;;14.41;72.08;101033.94;5116322;28;20067;-76
2021/09/08 00:50:10;;;;;;;13.98;8.55;;;;;;;14.49;71.60;101037.03;5116051;28;20401;-78
2021/09/08 00:52:42;;;;;;;14.27;8.38;;;;;;;14.52;71.65;101033.28;5116291;28;20043;-77
2021/09/08 00:55:12;;;;;;;13.73;8.32;;;;;;;14.52;71.51;101035.97;5116087;28;20086;-77
2021/09/08 00:57:41;;;;;;;15.27;8.02;;;;;;;14.35;72.36;101030.78;5115118;28;20044;-78
2021/09/08 01:00:13;;;;;;;13.23;7.70;;;;;;;14.38;72.10;101030.59;5115667;28;20071;-77
2021/09/08 01:02:44;;;;;;;14.60;8.18;;;;;;;14.31;72.63;101039.03;5115854;28;20062;-76
2021/09/08 01:05:14;;;;;;;16.23;8.60;;;;;;;14.12;73.98;101037.63;5115363;28;20424;-75
2021/09/08 01:07:44;;;;;;;13.25;8.43;;;;;;;14.10;74.18;101032.34;5115975;28;20077;-75
2021/09/08 01:10:14;;;;;;;15.25;8.80;;;;;;;14.19;73.89;101045.19;5115411;28;20105;-75
2021/09/08 01:12:44;;;;;;;14.35;8.38;;;;;;;14.13;73.65;101045.56;5115742;28;20050;-80
2021/09/08 01:15:14;;;;;;;14.35;8.60;;;;;;;14.11;73.63;101047.47;5115271;28;20478;-79
2021/09/08 01:17:46;;;;;;;14.82;8.63;;;;;;;13.95;73.92;101062.78;5115605;28;20097;-81
2021/09/08 01:20:17;;;;;;;14.98;8.40;;;;;;;14.17;73.46;101054.25;5115480;28;20089;-82
2021/09/08 01:22:50;;;;;;;14.80;8.57;;;;;;;14.24;72.59;101056.47;5115237;28;20047;-81
2021/09/08 01:25:19;;;;;;;;;;;;;;;14.31;72.42;101060.50;5115647;28;20043;-81
2021/09/08 01:27:48;;;;;;;14.32;7.63;;;;;;;14.47;71.38;101057.72;5115310;28;19964;-82
2021/09/08 01:30:17;;;;;;;15.45;8.60;;;;;;;14.38;71.61;101054.72;5114943;28;20484;-81
2021/09/08 01:32:47;;;;;;;15.73;8.23;;;;;;;14.27;72.40;101045.53;5115253;28;20036;-81
2021/09/08 01:35:16;;;;;;;15.73;8.55;;;;;;;14.22;72.24;101041.44;5115094;28;20053;-83
2021/09/08 01:37:45;;;;;;;14.63;8.20;;;;;;;14.30;71.74;101050.75;5115152;28;20067;-83
2021/09/08 01:40:16;;;;;;;13.40;8.32;;;;;;;14.37;71.64;101042.28;5114709;28;20047;-83
2021/09/08 01:42:48;;;;;;;16.10;7.82;;;;;;;14.31;71.92;101044.41;5115486;28;20074;-82
2021/09/08 01:45:17;;;;;;;12.60;8.07;;;;;;;14.11;72.33;101036.75;5115098;28;20075;-82
2021/09/08 01:47:46;;;;;;;17.13;8.57;;;;;;;14.06;72.61;101033.47;5115012;28;20126;-82
2021/09/08 01:50:19;;;;;;;12.05;7.80;;;;;;;14.04;72.30;101041.63;5114875;28;20467;-82
2021/09/08 01:52:47;;;;;;;11.07;7.10;;;;;;;14.20;71.24;101046.06;5114844;28;20062;-81
2021/09/08 01:55:21;;;;;;;13.38;7.70;;;;;;;14.01;71.53;101047.19;5114654;28;20139;-82
2021/09/08 01:57:50;;;;;;;13.40;7.43;;;;;;;13.92;72.17;101044.22;5115011;28;20035;-82
2021/09/08 02:00:20;;;;;;;15.90;8.00;;;;;;;13.96;71.75;101045.72;5114484;28;20055;-82
2021/09/08 02:02:48;;;;;;;15.80;7.75;;;;;;;13.84;71.89;101043.81;5115145;28;20446;-83
2021/09/08 02:05:21;;;;;;;11.73;7.60;;;;;;;13.66;72.59;101049.34;5114218;28;20043;-82
2021/09/08 02:07:49;;;;;;;16.13;9.05;;;;;;;13.82;71.83;101046.59;5115037;28;20036;-82
2021/09/08 02:10:19;;;;;;;15.77;7.93;;;;;;;13.58;72.81;101048.94;5114632;28;20443;-82
2021/09/08 02:12:48;;;;;;;11.32;7.65;;;;;;;13.72;72.93;101045.44;5114257;28;20066;-85
2021/09/08 02:15:18;;;;;;;13.20;7.80;;;;;;;13.68;73.07;101051.91;5114163;28;20043;-85
2021/09/08 02:17:49;;;;;;;15.80;7.82;;;;;;;13.71;73.72;101049.94;5114459;28;20075;-86
2021/09/08 02:20:17;;;;;;;12.55;8.00;;;;;;;13.78;73.77;101044.19;5116690;28;20043;-86
2021/09/08 02:22:47;;;;;;;12.55;7.82;;;;;;;13.80;74.32;101052.97;5114201;28;20040;-86
2021/09/08 02:25:15;;;;;;;14.88;8.15;;;;;;;13.78;74.34;101050.41;5114110;28;20047;-86
2021/09/08 02:27:45;;;;;;;14.15;7.95;;;;;;;13.77;74.56;101055.88;5113177;28;20154;-80
2021/09/08 02:30:14;;;;;;;13.02;7.75;;;;;;;13.50;75.22;101056.56;5113962;28;20044;-80
2021/09/08 02:32:43;;;;;;;14.50;7.82;;;;;;;13.55;75.00;101054.47;5114137;28;20045;-78
2021/09/08 02:35:12;;;;;;;13.32;8.02;;;;;;;13.45;75.28;101054.16;5114125;28;20047;-79
2021/09/08 02:37:40;;;;;;;14.40;7.68;;;;;;;13.36;75.98;101056.53;5114005;28;20044;-80
2021/09/08 02:40:09;;;;;;;14.07;8.48;;;;;;;13.21;77.04;101060.09;5113982;28;20039;-79
2021/09/08 02:42:38;;;;;;;12.77;7.90;;;;;;;13.15;76.78;101055.94;5113902;28;20035;-80
2021/09/08 02:45:09;;;;;;;15.18;8.27;;;;;;;13.22;77.19;101053.78;5114008;28;20036;-81
2021/09/08 02:47:39;;;;;;;17.08;8.40;;;;;;;13.13;78.61;101061.41;5114120;28;20093;-77
2021/09/08 02:50:11;;;;;;;13.93;7.63;;;;;;;13.06;78.83;101054.66;5113788;28;20047;-78
2021/09/08 02:52:39;;;;;;;13.10;7.25;;;;;;;13.65;76.33;101044.94;5114123;28;20370;-78
2021/09/08 02:55:10;;;;;;;17.02;8.00;;;;;;;13.40;76.69;101056.25;5113970;28;20537;-78
2021/09/08 02:57:38;;;;;;;16.38;7.93;;;;;;;13.17;77.99;101049.53;5113499;28;20055;-78
2021/09/08 03:00:09;;;;;;;13.73;7.60;;;;;;;13.40;76.88;101050.88;5113895;28;20452;-77
2021/09/08 03:02:38;;;;;;;15.95;8.18;;;;;;;13.31;77.01;101045.19;5113801;28;20044;-86
2021/09/08 03:05:07;;;;;;;13.43;7.15;;;;;;;13.67;75.57;101048.38;5113661;28;20050;-86
2021/09/08 03:07:36;;;;;;;11.38;7.47;;;;;;;13.54;76.02;101052.75;5113311;28;20043;-81
2021/09/08 03:10:08;;;;;;;12.90;7.80;;;;;;;13.46;76.75;101055.03;5113416;28;20043;-86
2021/09/08 03:12:37;;;;;;;16.55;7.97;;;;;;;13.40;77.20;101060.75;5113075;28;20130;-77
2021/09/08 03:15:09;;;;;;;16.48;8.43;;;;;;;13.09;78.97;101056.28;5113459;28;20054;-77
2021/09/08 03:17:39;;;;;;;14.38;7.93;;;;;;;13.12;78.71;101056.09;5113651;28;20093;-78
2021/09/08 03:20:09;;;;;;;15.10;7.57;;;;;;;13.02;79.16;101055.75;5113229;28;20047;-78
2021/09/08 03:22:37;;;;;;;13.20;7.88;;;;;;;13.05;79.42;101066.31;5112759;28;20409;-79
2021/09/08 03:25:06;;;;;;;14.77;7.25;;;;;;;13.09;79.28;101057.16;5113521;28;20142;-77
2021/09/08 03:27:36;;;;;;;11.57;7.32;;;;;;;13.03;79.59;101052.16;5113182;28;20539;-82
2021/09/08 03:30:06;;;;;;;12.55;7.85;;;;;;;13.02;80.02;101062.94;5113434;28;20043;-87
2021/09/08 03:32:36;;;;;;;13.88;7.57;;;;;;;13.05;79.94;101050.25;5112885;28;20039;-87
2021/09/08 03:35:05;;;;;;;14.57;7.60;;;;;;;12.98;80.31;101054.22;5113096;28;20097;-88
2021/09/08 03:37:33;;;;;;;13.98;7.85;;;;;;;12.97;80.78;101047.16;5112865;28;20159;-87
2021/09/08 03:40:05;;;;;;;14.77;7.65;;;;;;;12.84;82.38;101051.50;5113144;28;20461;-87
2021/09/08 03:42:35;;;;;;;13.35;8.50;;;;;;;12.81;82.49;101057.00;5113242;28;20047;-87
2021/09/08 03:45:04;;;;;;;13.82;7.90;;;;;;;12.81;82.60;101052.50;5113108;28;20481;-87
2021/09/08 03:47:33;;;;;;;15.23;8.10;;;;;;;12.70;83.82;101059.41;5112852;28;20093;-88
2021/09/08 03:50:02;;;;;;;13.38;8.07;;;;;;;12.72;83.74;101057.50;5113177;28;20383;-86
2021/09/08 03:52:30;;;;;;;16.83;8.43;;;;;;;12.81;83.30;101055.19;5113062;28;20039;-86
2021/09/08 03:55:18;;;;;;;15.20;8.20;;;;;;;12.89;82.89;101062.78;5112734;28;20486;-86
2021/09/08 03:57:47;;;;;;;15.85;7.80;;;;;;;12.81;83.27;101065.91;5113224;28;20047;-86
2021/09/08 04:00:16;;;;;;;12.77;8.18;;;;;;;12.98;82.78;101064.94;5113064;28;20051;-84
2021/09/08 04:02:46;;;;;;;16.00;8.55;;;;;;;12.88;82.87;101069.09;5113806;28;20096;-85
2021/09/08 04:05:18;;;;;;;17.60;8.23;;;;;;;12.81;83.23;101059.69;5112735;28;20035;-84
2021/09/08 04:07:46;;;;;;;15.30;8.80;;;;;;;12.74;84.06;101056.50;5113027;28;20082;-84
2021/09/08 04:10:14;;;;;;;15.45;8.35;;;;;;;12.70;84.73;101070.13;5113110;28;20096;-85
2021/09/08 04:12:43;;;;;;;16.92;8.38;;;;;;;12.63;85.11;101066.91;5113614;28;20052;-84
2021/09/08 04:15:11;;;;;;;15.05;7.30;;;;;;;12.81;84.03;101073.06;5114220;28;20044;-79
2021/09/08 04:17:42;;;;;;;13.35;7.85;;;;;;;12.85;83.96;101069.28;5113113;28;20044;-77
2021/09/08 04:20:13;;;;;;;15.07;8.15;;;;;;;12.95;83.28;101070.47;5112690;28;20547;-77
2021/09/08 04:22:42;;;;;;;14.35;7.55;;;;;;;13.05;82.80;101071.69;5112589;28;20127;-81
2021/09/08 04:25:14;;;;;;;13.70;7.72;;;;;;;13.07;82.90;101069.78;5072349;28;20138;-75
2021/09/08 04:27:42;;;;;;;14.32;7.45;;;;;;;12.95;83.17;101080.34;5070525;28;20114;-75
2021/09/08 04:30:11;;;;;;;13.63;8.10;;;;;;;12.87;83.24;101083.44;5072261;28;20040;-76
2021/09/08 04:32:39;;;;;;;15.55;7.75;;;;;;;12.85;83.50;101074.63;5072423;28;20103;-76
2021/09/08 04:35:09;;;;;;;18.27;8.93;;;;;;;12.75;84.04;101081.47;5075642;28;20402;-76
2021/09/08 04:37:42;;;;;;;16.60;7.95;;;;;;;12.80;83.92;101080.22;5075441;28;20048;-79
2021/09/08 04:40:14;;;;;;;14.60;8.20;;;;;;;12.82;83.76;101082.81;5076169;28;20044;-71
2021/09/08 04:42:42;;;;;;;18.23;8.45;;;;;;;12.85;83.76;101082.66;5075312;28;20056;-79
2021/09/08 04:45:11;;;;;;;15.35;8.13;;;;;;;12.95;83.05;101077.66;5075232;28;20048;-78
2021/09/08 04:47:40;;;;;;;15.40;8.02;;;;;;;13.22;82.00;101085.94;5074937;28;20048;-75
2021/09/08 04:50:09;;;;;;;15.70;8.38;;;;;;;13.20;81.82;101079.81;5075348;28;20041;-76
2021/09/08 04:52:37;;;;;;;15.25;8.00;;;;;;;13.44;80.81;101086.41;5075281;28;20045;-75
2021/09/08 04:55:07;;;;;;;13.82;8.15;;;;;;;13.40;81.01;101090.22;5075294;28;20110;-75
2021/09/08 04:57:41;;;;;;;14.63;8.32;;;;;;;13.33;81.55;101094.22;5075183;28;20495;-75
2021/09/08 05:00:10;;;;;;;15.05;8.93;;;;;;;13.34;81.51;101101.31;5075400;28;20037;-75
2021/09/08 05:02:39;;;;;;;16.35;8.32;;;;;;;13.51;80.79;101095.84;5075040;28;20037;-76
2021/09/08 05:05:10;;;;;;;15.43;8.60;;;;;;;13.63;80.00;101103.16;5075457;28;20068;-75
2021/09/08 05:07:39;;;;;;;12.48;8.00;;;;;;;13.67;79.80;101106.50;5074963;28;20041;-76
2021/09/08 05:10:08;;;;;;;13.57;8.02;;;;;;;13.79;78.99;101105.75;5075498;28;20032;-75
2021/09/08 05:12:37;;;;;;;16.25;8.43;;;;;;;13.95;78.07;101100.34;5074791;28;20048;-76
2021/09/08 05:15:10;;;;;;;14.25;8.07;;;;;;;13.86;78.09;101106.25;5074981;28;20036;-75
2021/09/08 05:17:39;;;;;;;15.55;8.30;;;;;;;13.74;78.33;101108.72;5074823;28;20048;-74
2021/09/08 05:20:08;;;;;;;17.27;9.27;;;;;;;13.63;79.12;101111.19;5074774;28;20049;-73
2021/09/08 05:22:37;;;;;;;15.43;8.55;;;;;;;13.73;78.07;101106.13;5074562;28;20575;-73
2021/09/08 05:25:07;;;;;;;19.13;9.38;;;;;;;13.87;77.15;101114.19;5114356;28;20078;-73
2021/09/08 05:27:39;;;;;;;20.70;9.35;;;;;;;14.09;76.33;101111.09;5114860;28;20035;-73
2021/09/08 05:30:10;;;;;;;16.65;8.57;;;;;;;14.19;74.74;101112.28;5115494;28;20127;-75
2021/09/08 05:32:38;;;;;;;18.30;8.82;;;;;;;14.30;73.87;101104.41;5115301;28;20043;-75
2021/09/08 05:35:12;;;;;;;18.25;9.60;;;;;;;14.49;73.55;101111.34;5115157;28;20044;-74
2021/09/08 05:37:41;;;;;;;21.30;9.30;;;;;;;14.76;72.01;101108.72;5114948;28;20067;-75
2021/09/08 05:40:10;;;;;;;18.65;9.02;;;;;;;14.95;70.81;101108.38;5114876;28;20074;-76
2021/09/08 05:42:39;;;;;;;17.13;9.18;;;;;;;14.98;71.19;101110.91;5114717;28;20047;-76
2021/09/08 05:45:09;;;;;;;22.20;9.85;;;;;;;14.84;72.17;101109.94;5115169;28;20504;-74
2021/09/08 05:47:38;;;;;;;18.98;9.82;;;;;;;14.88;72.20;101111.50;5114654;28;20063;-74
2021/09/08 05:50:08;;;;;;;19.88;9.70;;;;;;;15.16;70.70;101112.38;5114777;28;20108;-76
2021/09/08 05:52:36;;;;;;;18.65;9.95;;;;;;;15.28;70.50;101102.66;5115081;28;20039;-76
2021/09/08 05:55:05;;;;;;;16.85;9.25;;;;;;;15.26;70.47;101109.97;5114745;28;20051;-76
2021/09/08 05:57:37;;;;;;;16.95;9.93;;;;;;;15.45;69.65;101105.94;5114710;28;20051;-78
2021/09/08 06:00:06;;;;;;;15.02;9.30;;;;;;;15.51;68.92;101098.41;5114731;28;20073;-78
2021/09/08 06:02:36;;;;;;;17.67;9.02;;;;;;;15.63;68.05;101102.97;5114655;28;20036;-78
2021/09/08 06:05:11;;;;;;;18.90;9.48;;;;;;;15.76;66.89;101090.44;5114535;28;20044;-77
2021/09/08 06:07:39;;;;;;;13.43;8.55;;;;;;;15.81;65.89;101092.81;5114437;28;20039;-77
2021/09/08 06:10:08;;;;;;;14.30;8.25;;;;;;;16.13;65.17;101093.28;5114715;28;20040;-77
2021/09/08 06:12:37;;;;;;;13.65;8.43;;;;;;;16.18;64.15;101104.56;5113828;28;20214;-74
2021/09/08 06:15:07;;;;;;;14.52;8.75;;;;;;;16.13;64.02;101104.91;5113786;28;20067;-76
2021/09/08 06:17:38;;;;;;;14.57;8.77;;;;;;;16.58;62.56;101100.75;5110990;28;20035;-77
2021/09/08 06:20:07;;;;;;;18.38;8.77;;;;;;;16.82;61.04;101108.09;5113614;28;20101;-75
2021/09/08 06:22:36;;;;;;;17.75;9.10;;;;;;;16.83;61.30;101107.13;5110763;28;20435;-77
2021/09/08 06:25:05;;;;;;;13.93;8.38;;;;;;;17.01;60.90;101102.22;5113497;28;20529;-77
2021/09/08 06:27:34;;;;;;;14.50;8.43;;;;;;;17.15;59.63;101104.75;5112871;28;20104;-77
2021/09/08 06:30:02;;;;;;;17.75;9.18;;;;;;;17.27;59.19;101102.97;5113276;28;20066;-78
2021/09/08 06:32:33;;;;;;;15.60;9.02;;;;;;;17.40;58.84;101112.72;5113275;28;20058;-77
2021/09/08 06:35:05;;;;;;;14.82;8.82;;;;;;;17.74;57.48;101111.06;5113227;28;20101;-78
2021/09/08 06:37:34;;;;;;;20.25;8.20;;;;;;;17.61;58.03;101115.66;5113193;28;20063;-78
2021/09/08 06:40:02;;;;;;;17.48;8.57;;;;;;;17.84;57.02;101121.16;5113378;28;20551;-78
2021/09/08 06:42:33;;;;;;;16.98;9.10;;;;;;;18.23;56.42;101112.66;5112744;28;20035;-75
2021/09/08 06:45:13;;;;;;;16.67;9.18;;;;;;;18.78;54.27;101110.97;5095411;28;20096;-75
2021/09/08 06:47:41;;;;;;;15.43;8.38;;;;;;;19.10;53.23;101104.78;5113256;28;20031;-76
2021/09/08 06:50:11;;;;;;;18.48;8.68;;;;;;;19.10;53.08;101107.47;5113216;28;20122;-76
2021/09/08 06:52:39;;;;;;;15.95;9.00;;;;;;;19.20;52.80;101108.44;5113379;28;20055;-75
2021/09/08 06:55:11;;;;;;;14.32;8.63;;;;;;;19.02;52.36;101101.88;5112443;28;20036;-74
2021/09/08 06:57:39;;;;;;;14.65;8.63;;;;;;;18.66;53.72;101106.56;5113577;28;20126;-76
2021/09/08 07:00:09;;;;;;;15.70;8.18;;;;;;;18.42;54.65;101106.66;5113219;28;20040;-76
2021/09/08 07:02:40;;;;;;;15.18;8.20;;;;;;;18.27;55.38;101111.44;5113251;28;20114;-76
2021/09/08 07:05:11;;;;;;;15.68;7.85;;;;;;;18.39;55.29;101101.50;5113132;28;20452;-73
2021/09/08 07:07:40;;;;;;;16.05;8.70;;;;;;;18.29;55.03;101104.06;5112612;28;20032;-74
2021/09/08 07:10:09;;;;;;;15.60;8.35;;;;;;;18.21;54.71;101111.91;5113232;28;20039;-74
2021/09/08 07:12:37;;;;;;;19.10;7.80;;;;;;;18.43;54.67;101110.22;5112848;28;20375;-75
2021/09/08 07:15:06;;;;;;;15.25;8.88;;;;;;;18.33;54.77;101106.53;5112766;28;20105;-73
2021/09/08 07:17:36;;;;;;;14.23;8.43;;;;;;;18.41;54.64;101106.78;5112849;28;20039;-73
2021/09/08 07:20:05;;;;;;;15.88;8.10;;;;;;;18.44;54.83;101106.56;5112889;28;20539;-75
2021/09/08 07:22:38;;;;;;;15.70;8.23;;;;;;;18.27;54.73;101111.44;5112816;28;20070;-75
2021/09/08 07:25:07;;;;;;;13.98;7.63;;;;;;;18.42;54.84;101113.88;5110399;28;20055;-73
2021/09/08 07:27:37;;;;;;;16.88;8.05;;;;;;;18.47;54.05;101109.84;5112258;28;20040;-74
2021/09/08 07:30:07;;;;;;;15.35;7.55;;;;;;;18.46;54.85;101120.78;5112666;28;20085;-73
2021/09/08 07:32:35;;;;;;;17.17;8.32;;;;;;;18.50;55.02;101120.41;5112349;28;20032;-74
2021/09/08 07:35:06;;;;;;;15.90;8.07;;;;;;;18.59;54.29;101118.81;5112907;28;20044;-75
2021/09/08 07:37:37;;;;;;;19.50;8.40;;;;;;;18.73;54.23;101115.06;5112802;28;20077;-75
2021/09/08 07:40:09;;;;;;;14.98;8.25;;;;;;;18.65;54.26;101114.81;5112685;28;20561;-75
2021/09/08 07:42:38;;;;;;;;;;;;;;;18.75;54.10;101110.38;5113129;28;20047;-75
2021/09/08 07:45:10;;;;;;;15.45;8.65;;;;;;;18.79;52.93;101119.94;5109820;28;19919;-75
2021/09/08 07:47:39;;;;;;;16.23;8.20;;;;;;;18.80;53.12;101119.81;5112472;28;20062;-75
2021/09/08 07:50:13;;;;;;;12.98;7.45;;;;;;;18.94;53.01;101112.44;5110648;28;20036;-75
2021/09/08 07:52:45;;;;;;;14.13;7.85;;;;;;;19.01;52.74;101109.13;5112351;28;20104;-76
2021/09/08 07:55:14;;;;;;;14.57;7.88;;;;;;;18.98;52.78;101105.78;5112810;28;20067;-75
2021/09/08 07:57:43;;;;;;;18.55;8.07;;;;;;;19.09;52.94;101111.19;5112339;28;20052;-78
2021/09/08 08:00:12;;;;;;;16.15;7.30;;;;;;;19.25;51.42;101108.94;5112809;28;20036;-75
2021/09/08 08:02:45;;;;;;;14.07;7.55;;;;;;;19.35;51.24;101109.88;5094170;28;20050;-78
2021/09/08 08:05:15;;;;;;;13.80;7.57;;;;;;;19.25;52.10;101111.63;5111047;28;20097;-76
2021/09/08 08:07:47;;;;;;;14.20;6.63;;;;;;;19.48;51.38;101108.84;5115733;28;20063;-78
2021/09/08 08:10:20;;;;;;;12.75;7.03;;;;;;;19.48;50.21;101108.84;5116461;28;20048;-76
2021/09/08 08:12:49;;;;;;;15.90;8.13;;;;;;;19.39;50.78;101100.50;5112298;28;20398;-76
2021/09/08 08:15:17;;;;;;;18.52;7.22;;;;;;;19.43;51.39;101101.13;5116482;28;20040;-79
2021/09/08 08:17:46;;;;;;;12.90;7.07;;;;;;;19.39;51.06;101111.34;5097951;28;20052;-76
2021/09/08 08:20:14;;;;;;;12.45;7.10;;;;;;;19.70;49.73;101103.41;5116320;28;20067;-75
2021/09/08 08:22:43;;;;;;;14.15;6.55;;;;;;;19.68;49.99;101113.47;5111324;28;20115;-75
2021/09/08 08:25:15;;;;;;;11.98;6.32;;;;;;;19.74;49.22;101115.66;5113650;28;20043;-75
2021/09/08 08:27:45;;;;;;;13.35;6.82;;;;;;;19.72;49.73;101113.09;5116016;28;20035;-76
2021/09/08 08:30:15;;;;;;;10.88;6.05;;;;;;;19.72;49.05;101101.41;5116714;28;20047;-76
2021/09/08 08:32:45;;;;;;;12.73;6.05;;;;;;;19.78;49.16;101105.41;5116270;28;20067;-76
2021/09/08 08:35:14;;;;;;;13.90;6.75;;;;;;;19.87;48.94;101116.31;5116289;28;20047;-78
2021/09/08 08:37:46;;;;;;;11.90;6.32;;;;;;;19.95;49.00;101111.13;5116515;28;20047;-74
2021/09/08 08:40:14;;;;;;;12.57;6.47;;;;;;;19.98;47.96;101108.16;5116369;28;20093;-74
2021/09/08 08:42:45;;;;;;;10.63;5.57;;;;;;;20.17;46.04;101103.84;5116183;28;20067;-75
2021/09/08 08:45:16;;;;;;;11.63;5.82;;;;;;;20.18;47.15;101111.84;5116835;28;20040;-76
2021/09/08 08:47:45;;;;;;;11.93;5.75;;;;;;;20.24;46.34;101107.75;5116045;28;20054;-76
2021/09/08 08:50:16;;;;;;;14.32;6.63;;;;;;;20.37;46.10;101102.97;5116509;28;20046;-74
2021/09/08 08:52:45;;;;;;;12.43;6.80;;;;;;;20.43;46.70;101110.59;5115825;28;20532;-75
2021/09/08 08:55:14;;;;;;;12.25;8.30;;;;;;;20.60;45.84;101108.25;5115500;28;20047;-75
2021/09/08 08:57:48;;;;;;;9.75;5.88;;;;;;;20.55;45.42;101106.78;5114710;28;20549;-75
2021/09/08 09:00:18;;;;;;;11.40;5.78;;;;;;;20.62;43.83;101109.81;5115596;28;20032;-75
2021/09/08 09:02:48;;;;;;;14.65;5.10;;;;;;;20.68;43.83;101113.84;5115055;28;20042;-76
2021/09/08 09:05:36;;;;;;;8.00;4.88;;;;;;;20.73;42.89;101109.72;5115476;28;20437;-76
2021/09/08 09:08:06;;;;;;;11.05;5.10;;;;;;;20.82;42.45;101111.59;5111493;28;20068;-76
2021/09/08 09:10:36;;;;;;;11.20;5.22;;;;;;;20.87;43.47;101108.50;5115180;28;20051;-81
2021/09/08 09:13:08;;;;;;;13.45;5.65;;;;;;;20.96;43.21;101109.53;5115557;28;20035;-76
2021/09/08 09:15:37;;;;;;;12.50;5.40;;;;;;;21.01;42.71;101108.09;5115235;28;20039;-77
2021/09/08 09:18:06;;;;;;;10.10;4.93;;;;;;;21.20;41.33;101103.69;5114409;28;20283;-75
2021/09/08 09:20:39;;;;;;;11.18;5.20;;;;;;;21.26;41.20;101101.34;5115027;28;20036;-78
2021/09/08 09:23:07;;;;;;;8.23;4.68;;;;;;;21.36;41.71;101099.47;5114551;28;20050;-77
2021/09/08 09:25:39;;;;;;;12.77;4.68;;;;;;;21.49;40.79;101096.47;5114973;28;20039;-81
2021/09/08 09:28:09;;;;;;;9.98;4.82;;;;;;;21.57;40.58;101093.06;5114988;28;20047;-79
2021/09/08 09:30:41;;;;;;;11.02;5.00;;;;;;;21.51;40.81;101093.63;5114485;28;20043;-77
2021/09/08 09:33:31;;;;;;;10.25;5.28;;;;;;;21.43;40.58;101087.06;5113644;28;20085;-77
2021/09/08 09:36:14;;;;;;;8.68;4.95;;;;;;;21.36;40.74;101079.63;5112241;28;20031;-77
2021/09/08 09:38:49;;;;;;;10.93;4.75;;;;;;;21.41;41.15;101082.75;5114405;28;20039;-75
2021/09/08 09:41:22;;;;;;;11.50;4.93;;;;;;;21.57;40.79;101076.78;5121364;28;20039;-73
2021/09/08 09:43:51;;;;;;;8.32;4.53;;;;;;;21.76;39.27;101081.34;5109565;28;20040;-79
2021/09/08 09:46:20;;;;;;;7.97;4.68;;;;;;;21.80;38.42;101075.47;5115635;28;20043;-76
2021/09/08 09:48:50;;;;;;;7.03;4.30;;;;;;;22.12;37.87;101061.59;5115513;28;20047;-71
2021/09/08 09:51:18;;;;;;;10.20;4.60;;;;;;;22.04;38.31;101064.13;5115333;28;20127;-72
2021/09/08 09:53:48;;;;;;;12.93;4.40;;;;;;;22.05;38.09;101063.13;5115372;28;20097;-73
2021/09/08 09:56:17;;;;;;;10.85;4.40;;;;;;;22.15;37.21;101064.00;5115062;28;20035;-73
2021/09/08 09:58:49;;;;;;;9.30;4.10;;;;;;;22.03;37.46;101061.56;5115040;28;20039;-73
2021/09/08 10:01:21;;;;;;;8.30;4.65;;;;;;;21.96;37.63;101064.00;5115133;28;20044;-73
2021/09/08 10:03:50;;;;;;;10.18;4.60;;;;;;;22.04;38.14;101058.72;5114646;28;20080;-72
2021/09/08 10:06:22;;;;;;;9.70;4.72;;;;;;;22.27;37.69;101057.38;5114394;28;20036;-72
2021/09/08 10:08:55;;;;;;;10.13;4.32;;;;;;;22.29;37.33;101046.34;5114752;28;20063;-72
2021/09/08 10:11:26;;;;;;;7.90;4.15;;;;;;;22.43;37.54;101050.47;5115157;28;20040;-72
2021/09/08 10:13:58;;;;;;;6.97;4.20;;;;;;;22.39;37.24;101054.47;5114821;28;20035;-72
2021/09/08 10:16:34;;;;;;;7.32;4.47;;;;;;;22.46;36.33;101052.88;5112916;28;20058;-74
2021/09/08 10:19:05;;;;;;;12.15;4.05;;;;;;;22.21;36.70;101055.25;5114737;28;20122;-75
2021/09/08 10:21:35;;;;;;;9.27;4.55;;;;;;;22.37;37.83;101048.31;5115044;28;20055;-75
2021/09/08 10:24:05;;;;;;;9.98;4.53;;;;;;;22.50;37.10;101044.28;5114757;28;20051;-75
2021/09/08 10:26:36;;;;;;;10.32;4.32;;;;;;;22.61;35.99;101045.94;5114586;28;20043;-75
2021/09/08 10:29:08;;;;;;;7.30;3.88;;;;;;;22.53;35.68;101037.69;5113773;28;20044;-74
2021/09/08 10:31:40;;;;;;;9.45;4.10;;;;;;;22.61;35.59;101035.06;5111028;28;20045;-74
2021/09/08 10:34:11;;;;;;;8.90;4.40;;;;;;;22.70;35.60;101036.88;5114267;28;20085;-74
2021/09/08 10:36:43;;;;;;;6.85;3.95;;;;;;;22.63;35.36;101027.59;5113998;28;20035;-74
2021/09/08 10:39:13;;;;;;;11.40;4.75;;;;;;;22.77;35.66;101027.06;5114085;27;20052;-75
2021/09/08 10:41:44;;;;;;;10.57;4.65;;;;;;;22.86;35.52;101017.19;5113612;28;20153;-74
2021/09/08 10:44:15;;;;;;;8.90;3.90;;;;;;;23.01;35.28;101022.97;5113520;28;20043;-76
2021/09/08 10:46:57;;;;;;;10.93;4.50;;;;;;;23.01;35.63;101017.53;5113882;28;20039;-77
2021/09/08 10:49:50;;;;;;;10.18;4.20;;;;;;;23.10;35.22;101009.28;5112803;28;20047;-78
2021/09/08 10:52:45;;;;;;;10.40;4.53;;;;;;;23.20;34.89;101008.34;5113938;28;20067;-77
2021/09/08 10:55:26;;;;;;;12.88;4.80;;;;;;;23.26;34.80;101008.59;5114279;28;20069;-76
2021/09/08 10:58:02;;;;;;;8.50;4.20;;;;;;;23.33;34.53;101014.25;5113983;28;20093;-76
2021/09/08 11:00:37;;;;;;;8.63;4.30;;;;;;;23.21;34.59;101001.91;5112878;28;20063;-77
2021/09/08 11:03:10;;;;;;;9.57;4.38;;;;;;;23.06;34.56;101013.31;5113741;28;20047;-77
2021/09/08 11:05:52;;;;;;;10.10;4.13;;;;;;;22.94;35.06;101000.09;5113927;28;20089;-77
2021/09/08 11:08:25;;;;;;;7.77;4.53;;;;;;;22.91;35.20;101003.13;5112524;28;20063;-77
2021/09/08 11:11:09;;;;;;;9.15;4.82;;;;;;;23.30;33.38;101001.81;5113427;28;20066;-77
2021/09/08 11:13:40;;;;;;;9.70;4.30;;;;;;;23.37;33.21;101002.91;5113821;28;20104;-77
2021/09/08 11:16:18;;;;;;;9.93;4.55;;;;;;;23.43;33.11;101007.72;5113420;28;20036;-76
2021/09/08 11:18:48;;;;;;;7.88;4.38;;;;;;;23.41;33.27;101001.56;5113283;28;20120;-75
2021/09/08 11:21:17;;;;;;;7.60;4.43;;;;;;;23.43;32.56;100996.81;5113608;28;20044;-76
2021/09/08 11:23:47;;;;;;;7.55;4.05;;;;;;;23.37;32.59;100992.03;5113109;28;20430;-77
2021/09/08 11:26:18;;;;;;;10.10;4.82;;;;;;;23.65;32.89;100983.75;5113651;28;20477;-76
2021/09/08 11:28:46;;;;;;;7.60;4.40;;;;;;;23.51;32.74;100984.28;5113394;28;20469;-76
2021/09/08 11:31:20;;;;;;;7.47;4.13;;;;;;;23.46;33.16;100975.75;5113503;28;20039;-76
2021/09/08 11:33:50;;;;;;;10.57;4.60;;;;;;;23.69;32.94;100986.00;5113179;28;20134;-77